sensor_id;sensor_type;location;lat;lon;timestamp;P1;durP1;ratioP1;P2;durP2;ratioP2
24467;SDS011;12634;50.852;5.676;2023-03-16T00:01:06;4.82;;;3.10;;
24467;SDS011;12634;50.852;5.676;2023-03-16T00:03:34;6.40;;;3.50;;
24467;SDS011;12634;50.852;5.676;2023-03-16T00:06:01;6.07;;;2.85;;
24467;SDS011;12634;50.852;5.676;2023-03-16T00:08:29;7.25;;;3.70;;
24467;SDS011;12634;50.852;5.676;2023-03-16T00:10:56;6.40;;;3.95;;
24467;SDS011;12634;50.852;5.676;2023-03-16T00:13:24;6.22;;;3.65;;
24467;SDS011;12634;50.852;5.676;2023-03-16T00:15:53;6.28;;;3.53;;
24467;SDS011;12634;50.852;5.676;2023-03-16T00:18:21;5.38;;;3.33;;
24467;SDS011;12634;50.852;5.676;2023-03-16T00:20:51;6.90;;;3.55;;
24467;SDS011;12634;50.852;5.676;2023-03-16T00:23:19;7.45;;;3.83;;
24467;SDS011;12634;50.852;5.676;2023-03-16T00:25:51;4.93;;;3.15;;
24467;SDS011;12634;50.852;5.676;2023-03-16T00:28:19;6.65;;;3.22;;
24467;SDS011;12634;50.852;5.676;2023-03-16T00:30:47;6.07;;;3.17;;
24467;SDS011;12634;50.852;5.676;2023-03-16T00:33:15;7.70;;;3.42;;
24467;SDS011;12634;50.852;5.676;2023-03-16T00:35:44;6.50;;;3.28;;
24467;SDS011;12634;50.852;5.676;2023-03-16T00:38:14;6.35;;;3.00;;
24467;SDS011;12634;50.852;5.676;2023-03-16T00:40:41;6.20;;;3.17;;
24467;SDS011;12634;50.852;5.676;2023-03-16T00:43:09;6.30;;;2.90;;
24467;SDS011;12634;50.852;5.676;2023-03-16T00:45:36;5.55;;;3.42;;
24467;SDS011;12634;50.852;5.676;2023-03-16T00:48:03;5.22;;;3.35;;
24467;SDS011;12634;50.852;5.676;2023-03-16T00:50:32;4.28;;;2.72;;
24467;SDS011;12634;50.852;5.676;2023-03-16T00:52:59;5.47;;;2.72;;
24467;SDS011;12634;50.852;5.676;2023-03-16T00:55:26;5.75;;;3.20;;
24467;SDS011;12634;50.852;5.676;2023-03-16T00:57:53;6.72;;;3.38;;
24467;SDS011;12634;50.852;5.676;2023-03-16T01:00:20;6.38;;;2.92;;
24467;SDS011;12634;50.852;5.676;2023-03-16T01:02:52;5.78;;;3.33;;
24467;SDS011;12634;50.852;5.676;2023-03-16T01:05:19;5.30;;;2.97;;
24467;SDS011;12634;50.852;5.676;2023-03-16T01:07:48;7.30;;;2.60;;
24467;SDS011;12634;50.852;5.676;2023-03-16T01:10:16;4.60;;;2.90;;
24467;SDS011;12634;50.852;5.676;2023-03-16T01:12:43;5.45;;;2.60;;
24467;SDS011;12634;50.852;5.676;2023-03-16T01:15:10;5.47;;;2.53;;
24467;SDS011;12634;50.852;5.676;2023-03-16T01:17:38;4.03;;;2.50;;
24467;SDS011;12634;50.852;5.676;2023-03-16T01:20:06;4.95;;;2.80;;
24467;SDS011;12634;50.852;5.676;2023-03-16T01:22:36;5.78;;;2.72;;
24467;SDS011;12634;50.852;5.676;2023-03-16T01:25:05;4.72;;;2.83;;
24467;SDS011;12634;50.852;5.676;2023-03-16T01:27:33;5.97;;;2.67;;
24467;SDS011;12634;50.852;5.676;2023-03-16T01:30:00;6.68;;;2.85;;
24467;SDS011;12634;50.852;5.676;2023-03-16T01:32:27;5.78;;;2.75;;
24467;SDS011;12634;50.852;5.676;2023-03-16T01:34:54;5.60;;;2.50;;
24467;SDS011;12634;50.852;5.676;2023-03-16T01:37:21;6.32;;;2.55;;
24467;SDS011;12634;50.852;5.676;2023-03-16T01:39:49;6.10;;;2.45;;
24467;SDS011;12634;50.852;5.676;2023-03-16T01:42:17;5.57;;;2.30;;
24467;SDS011;12634;50.852;5.676;2023-03-16T01:44:48;4.28;;;2.38;;
24467;SDS011;12634;50.852;5.676;2023-03-16T01:47:18;3.67;;;2.47;;
24467;SDS011;12634;50.852;5.676;2023-03-16T01:49:45;4.75;;;2.83;;
24467;SDS011;12634;50.852;5.676;2023-03-16T01:52:13;4.35;;;2.10;;
24467;SDS011;12634;50.852;5.676;2023-03-16T01:54:45;5.88;;;2.20;;
24467;SDS011;12634;50.852;5.676;2023-03-16T01:57:14;7.05;;;2.58;;
24467;SDS011;12634;50.852;5.676;2023-03-16T01:59:47;4.15;;;2.45;;
24467;SDS011;12634;50.852;5.676;2023-03-16T02:02:18;5.15;;;2.50;;
24467;SDS011;12634;50.852;5.676;2023-03-16T02:04:48;8.23;;;2.72;;
24467;SDS011;12634;50.852;5.676;2023-03-16T02:07:19;7.18;;;2.30;;
24467;SDS011;12634;50.852;5.676;2023-03-16T02:09:50;6.00;;;3.00;;
24467;SDS011;12634;50.852;5.676;2023-03-16T02:12:24;4.82;;;2.63;;
24467;SDS011;12634;50.852;5.676;2023-03-16T02:14:51;4.72;;;2.60;;
24467;SDS011;12634;50.852;5.676;2023-03-16T02:17:19;4.88;;;2.20;;
24467;SDS011;12634;50.852;5.676;2023-03-16T02:19:52;6.95;;;2.50;;
24467;SDS011;12634;50.852;5.676;2023-03-16T02:22:33;4.25;;;1.83;;
24467;SDS011;12634;50.852;5.676;2023-03-16T02:25:01;4.47;;;2.38;;
24467;SDS011;12634;50.852;5.676;2023-03-16T02:27:32;5.32;;;2.20;;
24467;SDS011;12634;50.852;5.676;2023-03-16T02:30:08;7.63;;;2.13;;
24467;SDS011;12634;50.852;5.676;2023-03-16T02:32:38;3.50;;;2.08;;
24467;SDS011;12634;50.852;5.676;2023-03-16T02:35:07;5.57;;;2.33;;
24467;SDS011;12634;50.852;5.676;2023-03-16T02:37:37;4.53;;;2.08;;
24467;SDS011;12634;50.852;5.676;2023-03-16T02:40:14;6.35;;;2.72;;
24467;SDS011;12634;50.852;5.676;2023-03-16T02:42:46;4.22;;;2.60;;
24467;SDS011;12634;50.852;5.676;2023-03-16T02:45:20;3.90;;;2.08;;
24467;SDS011;12634;50.852;5.676;2023-03-16T02:47:49;6.03;;;2.78;;
24467;SDS011;12634;50.852;5.676;2023-03-16T02:50:18;5.65;;;2.80;;
24467;SDS011;12634;50.852;5.676;2023-03-16T02:52:46;5.45;;;3.10;;
24467;SDS011;12634;50.852;5.676;2023-03-16T02:55:13;5.78;;;3.05;;
24467;SDS011;12634;50.852;5.676;2023-03-16T02:57:40;5.13;;;2.90;;
24467;SDS011;12634;50.852;5.676;2023-03-16T03:00:08;8.20;;;3.00;;
24467;SDS011;12634;50.852;5.676;2023-03-16T03:02:44;4.07;;;2.75;;
24467;SDS011;12634;50.852;5.676;2023-03-16T03:05:11;5.40;;;2.63;;
24467;SDS011;12634;50.852;5.676;2023-03-16T03:07:38;5.03;;;2.33;;
24467;SDS011;12634;50.852;5.676;2023-03-16T03:10:06;4.70;;;2.25;;
24467;SDS011;12634;50.852;5.676;2023-03-16T03:12:35;5.13;;;2.65;;
24467;SDS011;12634;50.852;5.676;2023-03-16T03:15:02;6.00;;;2.70;;
24467;SDS011;12634;50.852;5.676;2023-03-16T03:17:30;4.22;;;2.25;;
24467;SDS011;12634;50.852;5.676;2023-03-16T03:19:59;4.70;;;1.98;;
24467;SDS011;12634;50.852;5.676;2023-03-16T03:24:59;4.95;;;2.25;;
24467;SDS011;12634;50.852;5.676;2023-03-16T03:27:26;4.05;;;2.15;;
24467;SDS011;12634;50.852;5.676;2023-03-16T03:29:53;5.10;;;2.35;;
24467;SDS011;12634;50.852;5.676;2023-03-16T03:32:21;4.50;;;2.20;;
24467;SDS011;12634;50.852;5.676;2023-03-16T03:34:48;5.28;;;2.30;;
24467;SDS011;12634;50.852;5.676;2023-03-16T03:37:16;4.93;;;1.80;;
24467;SDS011;12634;50.852;5.676;2023-03-16T03:39:43;4.13;;;1.88;;
24467;SDS011;12634;50.852;5.676;2023-03-16T03:42:11;3.45;;;1.90;;
24467;SDS011;12634;50.852;5.676;2023-03-16T03:44:38;2.78;;;1.80;;
24467;SDS011;12634;50.852;5.676;2023-03-16T03:47:05;3.92;;;1.80;;
24467;SDS011;12634;50.852;5.676;2023-03-16T03:49:32;4.32;;;2.15;;
24467;SDS011;12634;50.852;5.676;2023-03-16T03:51:59;5.75;;;2.22;;
24467;SDS011;12634;50.852;5.676;2023-03-16T03:54:30;4.03;;;2.17;;
24467;SDS011;12634;50.852;5.676;2023-03-16T03:56:57;7.32;;;2.65;;
24467;SDS011;12634;50.852;5.676;2023-03-16T03:59:24;5.13;;;2.20;;
24467;SDS011;12634;50.852;5.676;2023-03-16T04:01:51;3.35;;;2.10;;
24467;SDS011;12634;50.852;5.676;2023-03-16T04:04:19;4.75;;;2.40;;
24467;SDS011;12634;50.852;5.676;2023-03-16T04:06:46;4.70;;;2.03;;
24467;SDS011;12634;50.852;5.676;2023-03-16T04:09:15;3.97;;;2.40;;
24467;SDS011;12634;50.852;5.676;2023-03-16T04:11:43;4.07;;;2.20;;
24467;SDS011;12634;50.852;5.676;2023-03-16T04:14:11;4.30;;;2.40;;
24467;SDS011;12634;50.852;5.676;2023-03-16T04:16:38;4.38;;;2.63;;
24467;SDS011;12634;50.852;5.676;2023-03-16T04:19:05;5.80;;;2.80;;
24467;SDS011;12634;50.852;5.676;2023-03-16T04:21:32;4.80;;;2.50;;
24467;SDS011;12634;50.852;5.676;2023-03-16T04:23:59;6.20;;;2.97;;
24467;SDS011;12634;50.852;5.676;2023-03-16T04:26:29;5.82;;;2.63;;
24467;SDS011;12634;50.852;5.676;2023-03-16T04:28:58;6.65;;;2.90;;
24467;SDS011;12634;50.852;5.676;2023-03-16T04:31:26;6.45;;;2.80;;
24467;SDS011;12634;50.852;5.676;2023-03-16T04:33:53;3.63;;;2.33;;
24467;SDS011;12634;50.852;5.676;2023-03-16T04:36:20;7.93;;;2.90;;
24467;SDS011;12634;50.852;5.676;2023-03-16T04:38:48;5.82;;;2.92;;
24467;SDS011;12634;50.852;5.676;2023-03-16T04:41:16;4.63;;;2.65;;
24467;SDS011;12634;50.852;5.676;2023-03-16T04:43:43;4.47;;;2.53;;
24467;SDS011;12634;50.852;5.676;2023-03-16T04:46:12;4.88;;;2.53;;
24467;SDS011;12634;50.852;5.676;2023-03-16T04:48:39;6.00;;;3.20;;
24467;SDS011;12634;50.852;5.676;2023-03-16T04:51:06;6.88;;;2.80;;
24467;SDS011;12634;50.852;5.676;2023-03-16T04:53:33;6.93;;;2.70;;
24467;SDS011;12634;50.852;5.676;2023-03-16T04:56:01;4.88;;;2.80;;
24467;SDS011;12634;50.852;5.676;2023-03-16T04:58:28;5.68;;;2.45;;
24467;SDS011;12634;50.852;5.676;2023-03-16T05:00:56;4.75;;;2.90;;
24467;SDS011;12634;50.852;5.676;2023-03-16T05:03:24;7.00;;;2.72;;
24467;SDS011;12634;50.852;5.676;2023-03-16T05:05:51;5.30;;;2.75;;
24467;SDS011;12634;50.852;5.676;2023-03-16T05:08:18;5.32;;;3.05;;
24467;SDS011;12634;50.852;5.676;2023-03-16T05:10:45;4.82;;;3.05;;
24467;SDS011;12634;50.852;5.676;2023-03-16T05:13:12;5.20;;;2.83;;
24467;SDS011;12634;50.852;5.676;2023-03-16T05:15:40;6.10;;;3.47;;
24467;SDS011;12634;50.852;5.676;2023-03-16T05:18:07;5.30;;;2.67;;
24467;SDS011;12634;50.852;5.676;2023-03-16T05:20:36;4.85;;;2.78;;
24467;SDS011;12634;50.852;5.676;2023-03-16T05:23:03;10.07;;;3.20;;
24467;SDS011;12634;50.852;5.676;2023-03-16T05:25:32;7.38;;;3.28;;
24467;SDS011;12634;50.852;5.676;2023-03-16T05:27:59;8.68;;;3.00;;
24467;SDS011;12634;50.852;5.676;2023-03-16T05:30:26;5.35;;;2.80;;
24467;SDS011;12634;50.852;5.676;2023-03-16T05:32:54;7.65;;;3.53;;
24467;SDS011;12634;50.852;5.676;2023-03-16T05:35:22;6.60;;;3.05;;
24467;SDS011;12634;50.852;5.676;2023-03-16T05:37:50;6.72;;;2.90;;
24467;SDS011;12634;50.852;5.676;2023-03-16T05:40:18;6.93;;;3.03;;
24467;SDS011;12634;50.852;5.676;2023-03-16T05:42:47;4.47;;;2.97;;
24467;SDS011;12634;50.852;5.676;2023-03-16T05:45:19;6.72;;;3.45;;
24467;SDS011;12634;50.852;5.676;2023-03-16T05:47:46;6.97;;;3.13;;
24467;SDS011;12634;50.852;5.676;2023-03-16T05:50:14;6.68;;;3.53;;
24467;SDS011;12634;50.852;5.676;2023-03-16T05:52:42;4.03;;;2.70;;
24467;SDS011;12634;50.852;5.676;2023-03-16T05:55:11;6.55;;;3.47;;
24467;SDS011;12634;50.852;5.676;2023-03-16T05:57:39;4.22;;;3.15;;
24467;SDS011;12634;50.852;5.676;2023-03-16T06:00:09;4.97;;;2.80;;
24467;SDS011;12634;50.852;5.676;2023-03-16T06:02:39;6.80;;;3.40;;
24467;SDS011;12634;50.852;5.676;2023-03-16T06:05:06;7.90;;;3.13;;
24467;SDS011;12634;50.852;5.676;2023-03-16T06:07:34;5.53;;;3.05;;
24467;SDS011;12634;50.852;5.676;2023-03-16T06:10:01;6.18;;;2.92;;
24467;SDS011;12634;50.852;5.676;2023-03-16T06:12:30;6.28;;;3.38;;
24467;SDS011;12634;50.852;5.676;2023-03-16T06:14:58;5.35;;;3.35;;
24467;SDS011;12634;50.852;5.676;2023-03-16T06:17:26;7.30;;;3.67;;
24467;SDS011;12634;50.852;5.676;2023-03-16T06:19:53;6.82;;;3.15;;
24467;SDS011;12634;50.852;5.676;2023-03-16T06:22:20;7.47;;;2.95;;
24467;SDS011;12634;50.852;5.676;2023-03-16T06:24:49;6.20;;;2.85;;
24467;SDS011;12634;50.852;5.676;2023-03-16T06:27:16;5.68;;;2.80;;
24467;SDS011;12634;50.852;5.676;2023-03-16T06:29:45;7.55;;;3.30;;
24467;SDS011;12634;50.852;5.676;2023-03-16T06:32:13;5.00;;;2.78;;
24467;SDS011;12634;50.852;5.676;2023-03-16T06:34:40;8.40;;;3.13;;
24467;SDS011;12634;50.852;5.676;2023-03-16T06:37:07;6.32;;;3.47;;
24467;SDS011;12634;50.852;5.676;2023-03-16T06:39:34;6.95;;;3.10;;
24467;SDS011;12634;50.852;5.676;2023-03-16T06:42:02;5.90;;;2.95;;
24467;SDS011;12634;50.852;5.676;2023-03-16T06:44:29;7.03;;;3.03;;
24467;SDS011;12634;50.852;5.676;2023-03-16T06:46:58;5.68;;;3.17;;
24467;SDS011;12634;50.852;5.676;2023-03-16T06:49:25;5.15;;;2.97;;
24467;SDS011;12634;50.852;5.676;2023-03-16T06:51:52;6.50;;;2.60;;
24467;SDS011;12634;50.852;5.676;2023-03-16T06:54:20;8.95;;;3.33;;
24467;SDS011;12634;50.852;5.676;2023-03-16T06:56:47;7.05;;;2.88;;
24467;SDS011;12634;50.852;5.676;2023-03-16T06:59:15;7.80;;;3.15;;
24467;SDS011;12634;50.852;5.676;2023-03-16T07:01:42;11.68;;;3.75;;
24467;SDS011;12634;50.852;5.676;2023-03-16T07:04:11;7.40;;;3.30;;
24467;SDS011;12634;50.852;5.676;2023-03-16T07:06:38;6.38;;;3.05;;
24467;SDS011;12634;50.852;5.676;2023-03-16T07:09:05;5.95;;;2.90;;
24467;SDS011;12634;50.852;5.676;2023-03-16T07:11:33;7.00;;;2.85;;
24467;SDS011;12634;50.852;5.676;2023-03-16T07:14:00;4.30;;;2.38;;
24467;SDS011;12634;50.852;5.676;2023-03-16T07:16:27;5.70;;;2.70;;
24467;SDS011;12634;50.852;5.676;2023-03-16T07:18:54;4.60;;;2.63;;
24467;SDS011;12634;50.852;5.676;2023-03-16T07:21:23;6.32;;;2.97;;
24467;SDS011;12634;50.852;5.676;2023-03-16T07:23:50;5.05;;;2.85;;
24467;SDS011;12634;50.852;5.676;2023-03-16T07:26:17;5.72;;;3.00;;
24467;SDS011;12634;50.852;5.676;2023-03-16T07:28:45;9.23;;;2.75;;
24467;SDS011;12634;50.852;5.676;2023-03-16T07:31:12;4.65;;;2.78;;
24467;SDS011;12634;50.852;5.676;2023-03-16T07:33:39;5.40;;;2.53;;
24467;SDS011;12634;50.852;5.676;2023-03-16T07:36:07;7.57;;;2.95;;
24467;SDS011;12634;50.852;5.676;2023-03-16T07:38:36;6.05;;;2.50;;
24467;SDS011;12634;50.852;5.676;2023-03-16T07:41:04;4.22;;;2.40;;
24467;SDS011;12634;50.852;5.676;2023-03-16T07:43:31;6.75;;;2.80;;
24467;SDS011;12634;50.852;5.676;2023-03-16T07:45:58;4.93;;;2.13;;
24467;SDS011;12634;50.852;5.676;2023-03-16T07:48:26;4.45;;;2.17;;
24467;SDS011;12634;50.852;5.676;2023-03-16T07:50:53;7.35;;;2.08;;
24467;SDS011;12634;50.852;5.676;2023-03-16T07:53:20;4.95;;;2.00;;
24467;SDS011;12634;50.852;5.676;2023-03-16T07:55:49;4.60;;;2.30;;
24467;SDS011;12634;50.852;5.676;2023-03-16T07:58:16;4.00;;;2.08;;
24467;SDS011;12634;50.852;5.676;2023-03-16T08:00:43;4.97;;;1.83;;
24467;SDS011;12634;50.852;5.676;2023-03-16T08:03:10;5.50;;;2.13;;
24467;SDS011;12634;50.852;5.676;2023-03-16T08:05:38;9.57;;;2.20;;
24467;SDS011;12634;50.852;5.676;2023-03-16T08:08:05;3.80;;;1.65;;
24467;SDS011;12634;50.852;5.676;2023-03-16T08:10:33;5.82;;;2.28;;
24467;SDS011;12634;50.852;5.676;2023-03-16T08:13:02;3.72;;;2.00;;
24467;SDS011;12634;50.852;5.676;2023-03-16T08:15:30;5.43;;;2.15;;
24467;SDS011;12634;50.852;5.676;2023-03-16T08:17:59;4.38;;;1.90;;
24467;SDS011;12634;50.852;5.676;2023-03-16T08:20:27;3.72;;;1.88;;
24467;SDS011;12634;50.852;5.676;2023-03-16T08:22:54;5.25;;;1.85;;
24467;SDS011;12634;50.852;5.676;2023-03-16T08:25:22;5.57;;;2.25;;
24467;SDS011;12634;50.852;5.676;2023-03-16T08:27:49;3.53;;;1.88;;
24467;SDS011;12634;50.852;5.676;2023-03-16T08:30:18;3.88;;;1.70;;
24467;SDS011;12634;50.852;5.676;2023-03-16T08:32:46;5.57;;;1.98;;
24467;SDS011;12634;50.852;5.676;2023-03-16T08:35:14;4.80;;;2.33;;
24467;SDS011;12634;50.852;5.676;2023-03-16T08:37:42;4.95;;;1.77;;
24467;SDS011;12634;50.852;5.676;2023-03-16T08:40:10;6.55;;;2.00;;
24467;SDS011;12634;50.852;5.676;2023-03-16T08:42:40;7.45;;;1.85;;
24467;SDS011;12634;50.852;5.676;2023-03-16T08:45:09;4.50;;;1.88;;
24467;SDS011;12634;50.852;5.676;2023-03-16T08:47:38;3.47;;;1.63;;
24467;SDS011;12634;50.852;5.676;2023-03-16T08:50:06;3.85;;;2.10;;
24467;SDS011;12634;50.852;5.676;2023-03-16T08:52:35;6.25;;;2.00;;
24467;SDS011;12634;50.852;5.676;2023-03-16T08:55:02;6.63;;;1.80;;
24467;SDS011;12634;50.852;5.676;2023-03-16T08:57:31;3.80;;;1.67;;
24467;SDS011;12634;50.852;5.676;2023-03-16T09:00:00;3.90;;;1.70;;
24467;SDS011;12634;50.852;5.676;2023-03-16T09:05:04;2.70;;;1.60;;
24467;SDS011;12634;50.852;5.676;2023-03-16T09:07:33;4.63;;;1.60;;
24467;SDS011;12634;50.852;5.676;2023-03-16T09:10:00;4.18;;;1.63;;
24467;SDS011;12634;50.852;5.676;2023-03-16T09:12:29;5.13;;;1.65;;
24467;SDS011;12634;50.852;5.676;2023-03-16T09:14:57;5.40;;;1.90;;
24467;SDS011;12634;50.852;5.676;2023-03-16T09:17:24;4.50;;;1.67;;
24467;SDS011;12634;50.852;5.676;2023-03-16T09:19:52;4.32;;;1.60;;
24467;SDS011;12634;50.852;5.676;2023-03-16T09:22:21;4.75;;;2.08;;
24467;SDS011;12634;50.852;5.676;2023-03-16T09:24:49;3.97;;;1.42;;
24467;SDS011;12634;50.852;5.676;2023-03-16T09:27:16;3.28;;;1.58;;
24467;SDS011;12634;50.852;5.676;2023-03-16T09:29:44;4.75;;;1.95;;
24467;SDS011;12634;50.852;5.676;2023-03-16T09:32:12;5.45;;;1.73;;
24467;SDS011;12634;50.852;5.676;2023-03-16T09:34:40;4.10;;;1.45;;
24467;SDS011;12634;50.852;5.676;2023-03-16T09:37:07;7.72;;;1.42;;
24467;SDS011;12634;50.852;5.676;2023-03-16T09:39:36;4.82;;;1.50;;
24467;SDS011;12634;50.852;5.676;2023-03-16T09:42:05;6.03;;;1.70;;
24467;SDS011;12634;50.852;5.676;2023-03-16T09:44:42;2.85;;;1.25;;
24467;SDS011;12634;50.852;5.676;2023-03-16T09:47:18;6.75;;;1.30;;
24467;SDS011;12634;50.852;5.676;2023-03-16T09:49:50;2.95;;;1.70;;
24467;SDS011;12634;50.852;5.676;2023-03-16T09:52:22;4.97;;;2.05;;
24467;SDS011;12634;50.852;5.676;2023-03-16T09:54:57;3.47;;;1.52;;
24467;SDS011;12634;50.852;5.676;2023-03-16T09:57:28;3.80;;;1.60;;
24467;SDS011;12634;50.852;5.676;2023-03-16T10:00:00;3.30;;;1.60;;
24467;SDS011;12634;50.852;5.676;2023-03-16T10:02:42;6.75;;;1.63;;
24467;SDS011;12634;50.852;5.676;2023-03-16T10:05:22;4.30;;;1.42;;
24467;SDS011;12634;50.852;5.676;2023-03-16T10:07:52;3.42;;;1.35;;
24467;SDS011;12634;50.852;5.676;2023-03-16T10:10:34;3.47;;;1.40;;
24467;SDS011;12634;50.852;5.676;2023-03-16T10:13:22;3.78;;;1.42;;
24467;SDS011;12634;50.852;5.676;2023-03-16T10:15:58;2.45;;;1.15;;
24467;SDS011;12634;50.852;5.676;2023-03-16T10:18:29;3.15;;;1.48;;
24467;SDS011;12634;50.852;5.676;2023-03-16T10:20:59;6.22;;;1.60;;
24467;SDS011;12634;50.852;5.676;2023-03-16T10:23:28;2.30;;;1.30;;
24467;SDS011;12634;50.852;5.676;2023-03-16T10:26:01;5.63;;;1.35;;
24467;SDS011;12634;50.852;5.676;2023-03-16T10:28:37;3.58;;;1.30;;
24467;SDS011;12634;50.852;5.676;2023-03-16T10:31:05;7.05;;;1.48;;
24467;SDS011;12634;50.852;5.676;2023-03-16T10:33:33;3.35;;;1.15;;
24467;SDS011;12634;50.852;5.676;2023-03-16T10:36:03;5.22;;;1.50;;
24467;SDS011;12634;50.852;5.676;2023-03-16T10:38:40;2.95;;;1.27;;
24467;SDS011;12634;50.852;5.676;2023-03-16T10:41:20;2.05;;;1.00;;
24467;SDS011;12634;50.852;5.676;2023-03-16T10:43:50;4.93;;;1.20;;
24467;SDS011;12634;50.852;5.676;2023-03-16T10:46:19;4.30;;;1.10;;
24467;SDS011;12634;50.852;5.676;2023-03-16T10:48:50;2.20;;;1.27;;
24467;SDS011;12634;50.852;5.676;2023-03-16T10:51:20;3.33;;;1.50;;
24467;SDS011;12634;50.852;5.676;2023-03-16T10:53:51;5.55;;;1.55;;
24467;SDS011;12634;50.852;5.676;2023-03-16T10:56:21;4.05;;;1.20;;
24467;SDS011;12634;50.852;5.676;2023-03-16T10:58:50;4.07;;;1.58;;
24467;SDS011;12634;50.852;5.676;2023-03-16T11:01:18;3.75;;;1.20;;
24467;SDS011;12634;50.852;5.676;2023-03-16T11:03:49;4.75;;;1.30;;
24467;SDS011;12634;50.852;5.676;2023-03-16T11:06:20;4.93;;;0.90;;
24467;SDS011;12634;50.852;5.676;2023-03-16T11:08:50;4.20;;;1.23;;
24467;SDS011;12634;50.852;5.676;2023-03-16T11:11:23;3.78;;;1.08;;
24467;SDS011;12634;50.852;5.676;2023-03-16T11:13:54;4.53;;;1.40;;
24467;SDS011;12634;50.852;5.676;2023-03-16T11:16:24;5.13;;;1.25;;
24467;SDS011;12634;50.852;5.676;2023-03-16T11:18:56;4.03;;;1.20;;
24467;SDS011;12634;50.852;5.676;2023-03-16T11:21:32;3.67;;;1.00;;
24467;SDS011;12634;50.852;5.676;2023-03-16T11:24:05;4.72;;;1.23;;
24467;SDS011;12634;50.852;5.676;2023-03-16T11:26:43;2.28;;;1.02;;
24467;SDS011;12634;50.852;5.676;2023-03-16T11:29:15;1.60;;;0.88;;
24467;SDS011;12634;50.852;5.676;2023-03-16T11:31:46;2.08;;;0.75;;
24467;SDS011;12634;50.852;5.676;2023-03-16T11:34:26;4.70;;;1.30;;
24467;SDS011;12634;50.852;5.676;2023-03-16T11:36:55;5.93;;;0.80;;
24467;SDS011;12634;50.852;5.676;2023-03-16T11:39:30;2.92;;;1.00;;
24467;SDS011;12634;50.852;5.676;2023-03-16T11:42:22;3.42;;;0.95;;
24467;SDS011;12634;50.852;5.676;2023-03-16T11:44:54;4.22;;;1.25;;
24467;SDS011;12634;50.852;5.676;2023-03-16T11:50:36;2.78;;;0.95;;
24467;SDS011;12634;50.852;5.676;2023-03-16T11:53:18;3.20;;;0.90;;
24467;SDS011;12634;50.852;5.676;2023-03-16T11:55:59;3.55;;;1.10;;
24467;SDS011;12634;50.852;5.676;2023-03-16T11:58:39;2.40;;;1.00;;
24467;SDS011;12634;50.852;5.676;2023-03-16T12:01:16;1.67;;;0.75;;
24467;SDS011;12634;50.852;5.676;2023-03-16T12:03:52;1.98;;;0.93;;
24467;SDS011;12634;50.852;5.676;2023-03-16T12:06:37;2.75;;;0.88;;
24467;SDS011;12634;50.852;5.676;2023-03-16T12:09:28;6.47;;;1.10;;
24467;SDS011;12634;50.852;5.676;2023-03-16T12:12:23;4.68;;;0.90;;
24467;SDS011;12634;50.852;5.676;2023-03-16T12:15:06;5.80;;;1.23;;
24467;SDS011;12634;50.852;5.676;2023-03-16T12:17:42;4.18;;;1.10;;
24467;SDS011;12634;50.852;5.676;2023-03-16T12:20:13;3.45;;;1.17;;
24467;SDS011;12634;50.852;5.676;2023-03-16T12:22:45;3.03;;;1.02;;
24467;SDS011;12634;50.852;5.676;2023-03-16T12:25:17;4.15;;;1.30;;
24467;SDS011;12634;50.852;5.676;2023-03-16T12:27:47;3.90;;;1.30;;
24467;SDS011;12634;50.852;5.676;2023-03-16T12:30:26;4.80;;;1.08;;
24467;SDS011;12634;50.852;5.676;2023-03-16T12:33:03;4.00;;;1.25;;
24467;SDS011;12634;50.852;5.676;2023-03-16T12:35:39;3.92;;;0.80;;
24467;SDS011;12634;50.852;5.676;2023-03-16T12:38:21;3.58;;;1.17;;
24467;SDS011;12634;50.852;5.676;2023-03-16T12:40:59;4.50;;;1.13;;
24467;SDS011;12634;50.852;5.676;2023-03-16T12:43:37;6.38;;;1.10;;
24467;SDS011;12634;50.852;5.676;2023-03-16T12:46:14;6.30;;;1.48;;
24467;SDS011;12634;50.852;5.676;2023-03-16T12:48:50;3.65;;;1.30;;
24467;SDS011;12634;50.852;5.676;2023-03-16T12:51:20;3.78;;;1.35;;
24467;SDS011;12634;50.852;5.676;2023-03-16T12:53:58;3.25;;;1.00;;
24467;SDS011;12634;50.852;5.676;2023-03-16T12:56:27;6.13;;;1.25;;
24467;SDS011;12634;50.852;5.676;2023-03-16T12:58:55;2.08;;;0.90;;
24467;SDS011;12634;50.852;5.676;2023-03-16T13:01:26;5.60;;;1.00;;
24467;SDS011;12634;50.852;5.676;2023-03-16T13:03:59;3.05;;;1.05;;
24467;SDS011;12634;50.852;5.676;2023-03-16T13:06:30;3.97;;;1.20;;
24467;SDS011;12634;50.852;5.676;2023-03-16T13:08:59;2.38;;;0.82;;
24467;SDS011;12634;50.852;5.676;2023-03-16T13:11:38;3.03;;;0.85;;
24467;SDS011;12634;50.852;5.676;2023-03-16T13:14:08;3.53;;;0.88;;
24467;SDS011;12634;50.852;5.676;2023-03-16T13:16:42;4.18;;;1.00;;
24467;SDS011;12634;50.852;5.676;2023-03-16T13:19:23;2.03;;;0.93;;
24467;SDS011;12634;50.852;5.676;2023-03-16T13:22:02;4.38;;;1.00;;
24467;SDS011;12634;50.852;5.676;2023-03-16T13:24:48;3.97;;;1.00;;
24467;SDS011;12634;50.852;5.676;2023-03-16T13:27:21;3.65;;;1.08;;
24467;SDS011;12634;50.852;5.676;2023-03-16T13:29:56;3.78;;;1.65;;
24467;SDS011;12634;50.852;5.676;2023-03-16T13:32:28;5.47;;;0.98;;
24467;SDS011;12634;50.852;5.676;2023-03-16T13:34:59;2.15;;;1.08;;
24467;SDS011;12634;50.852;5.676;2023-03-16T13:37:28;4.28;;;1.25;;
24467;SDS011;12634;50.852;5.676;2023-03-16T13:39:56;3.10;;;0.90;;
24467;SDS011;12634;50.852;5.676;2023-03-16T13:42:27;1.40;;;0.65;;
24467;SDS011;12634;50.852;5.676;2023-03-16T13:44:55;5.57;;;1.42;;
24467;SDS011;12634;50.852;5.676;2023-03-16T13:47:24;2.45;;;1.00;;
24467;SDS011;12634;50.852;5.676;2023-03-16T13:49:55;3.25;;;1.10;;
24467;SDS011;12634;50.852;5.676;2023-03-16T13:52:25;3.80;;;1.20;;
24467;SDS011;12634;50.852;5.676;2023-03-16T13:54:53;3.20;;;1.10;;
24467;SDS011;12634;50.852;5.676;2023-03-16T13:57:23;3.15;;;0.90;;
24467;SDS011;12634;50.852;5.676;2023-03-16T13:59:59;2.38;;;0.80;;
24467;SDS011;12634;50.852;5.676;2023-03-16T14:02:30;2.08;;;0.85;;
24467;SDS011;12634;50.852;5.676;2023-03-16T14:05:10;2.00;;;1.00;;
24467;SDS011;12634;50.852;5.676;2023-03-16T14:07:38;3.80;;;1.10;;
24467;SDS011;12634;50.852;5.676;2023-03-16T14:10:07;3.42;;;0.85;;
24467;SDS011;12634;50.852;5.676;2023-03-16T14:12:36;2.42;;;0.93;;
24467;SDS011;12634;50.852;5.676;2023-03-16T14:15:05;1.48;;;0.70;;
24467;SDS011;12634;50.852;5.676;2023-03-16T14:17:35;4.85;;;0.90;;
24467;SDS011;12634;50.852;5.676;2023-03-16T14:20:02;2.63;;;0.73;;
24467;SDS011;12634;50.852;5.676;2023-03-16T14:22:34;4.28;;;0.60;;
24467;SDS011;12634;50.852;5.676;2023-03-16T14:25:04;3.00;;;0.90;;
24467;SDS011;12634;50.852;5.676;2023-03-16T14:27:41;3.63;;;0.80;;
24467;SDS011;12634;50.852;5.676;2023-03-16T14:30:14;2.20;;;0.73;;
24467;SDS011;12634;50.852;5.676;2023-03-16T14:32:53;3.55;;;0.90;;
24467;SDS011;12634;50.852;5.676;2023-03-16T14:35:24;3.90;;;0.98;;
24467;SDS011;12634;50.852;5.676;2023-03-16T14:37:54;3.10;;;0.93;;
24467;SDS011;12634;50.852;5.676;2023-03-16T14:40:23;3.78;;;0.77;;
24467;SDS011;12634;50.852;5.676;2023-03-16T14:42:53;2.72;;;0.82;;
24467;SDS011;12634;50.852;5.676;2023-03-16T14:45:23;1.40;;;0.60;;
24467;SDS011;12634;50.852;5.676;2023-03-16T14:47:58;1.58;;;0.80;;
24467;SDS011;12634;50.852;5.676;2023-03-16T14:50:29;1.17;;;0.73;;
24467;SDS011;12634;50.852;5.676;2023-03-16T14:52:58;2.75;;;0.80;;
24467;SDS011;12634;50.852;5.676;2023-03-16T14:55:25;2.22;;;0.63;;
24467;SDS011;12634;50.852;5.676;2023-03-16T14:57:53;2.92;;;0.88;;
24467;SDS011;12634;50.852;5.676;2023-03-16T15:00:20;2.70;;;0.75;;
24467;SDS011;12634;50.852;5.676;2023-03-16T15:02:53;1.95;;;0.45;;
24467;SDS011;12634;50.852;5.676;2023-03-16T15:05:29;0.90;;;0.55;;
24467;SDS011;12634;50.852;5.676;2023-03-16T15:08:00;2.42;;;0.90;;
24467;SDS011;12634;50.852;5.676;2023-03-16T15:10:29;1.90;;;0.60;;
24467;SDS011;12634;50.852;5.676;2023-03-16T15:12:58;1.15;;;0.57;;